Time;durP1;ratioP1;P1;durP2;ratioP2;P2;SDS_P1;SDS_P2;PMS_P1;PMS_P2;Temp;Humidity;BMP_temperature;BMP_pressure;BME280_temperature;BME280_humidity;BME280_pressure;Samples;Min_cycle;Max_cycle;Signal;HPM_P1;HPM_P2
2020/12/02 00:00:33;;;;;;;1999.90;999.90;;;;;;;-2.01;67.57;97160.78;5093099;28;20036;-73
2020/12/02 00:03:40;;;;;;;1999.90;999.90;;;;;;;-2.11;67.39;97154.75;5093242;28;20471;-73
2020/12/02 00:06:08;;;;;;;1999.90;999.90;;;;;;;-2.17;68.57;97150.06;5093235;28;20044;-73
2020/12/02 00:08:38;;;;;;;1999.90;999.90;;;;;;;-1.97;67.69;97155.34;5093181;28;20051;-71
2020/12/02 00:11:10;;;;;;;1999.90;999.90;;;;;;;-1.84;66.97;97161.13;5093054;28;20447;-71
2020/12/02 00:13:42;;;;;;;1999.90;999.90;;;;;;;-1.80;66.13;97156.53;5093136;28;20055;-71
2020/12/02 00:16:13;;;;;;;1999.90;999.90;;;;;;;-1.76;66.14;97163.91;5093089;28;20075;-70
2020/12/02 00:18:40;;;;;;;1999.90;999.90;;;;;;;-1.78;66.55;97152.88;5093155;28;20536;-71
2020/12/02 00:21:07;;;;;;;1999.90;999.90;;;;;;;-1.60;65.59;97162.63;5092875;28;20046;-71
2020/12/02 00:23:32;;;;;;;1999.90;999.90;;;;;;;-1.64;65.59;97162.06;5093363;28;20465;-70
2020/12/02 00:25:58;;;;;;;1999.90;999.90;;;;;;;-1.80;66.32;97162.50;5093077;28;20078;-70
2020/12/02 00:28:24;;;;;;;1999.90;999.90;;;;;;;-1.74;66.67;97161.19;5093111;28;20035;-70
2020/12/02 00:30:49;;;;;;;1999.90;999.90;;;;;;;-1.66;67.13;97169.97;5099774;28;20115;-70
2020/12/02 00:33:22;;;;;;;1999.90;999.90;;;;;;;-1.72;66.25;97169.63;5092812;28;20119;-71
2020/12/02 00:35:48;;;;;;;1999.90;999.90;;;;;;;-1.77;66.92;97162.28;5092732;28;20101;-70
2020/12/02 00:38:14;;;;;;;1999.90;999.90;;;;;;;-1.74;66.38;97161.19;5092642;28;20234;-70
2020/12/02 00:40:44;;;;;;;1999.90;999.90;;;;;;;-1.79;66.27;97158.19;5092523;28;20044;-70
2020/12/02 00:43:12;;;;;;;1999.90;999.90;;;;;;;-1.75;66.49;97160.34;5099310;28;20040;-70
2020/12/02 00:45:39;;;;;;;1999.90;999.90;;;;;;;-1.74;67.02;97156.81;5099247;28;20036;-70
2020/12/02 00:48:09;;;;;;;1999.90;999.90;;;;;;;-1.67;67.21;97163.13;5092583;28;20127;-70
2020/12/02 00:50:35;;;;;;;1999.90;999.90;;;;;;;-1.73;66.81;97161.06;5095040;28;20044;-71
2020/12/02 00:53:12;;;;;;;1999.90;999.90;;;;;;;-1.68;66.13;97156.31;5105173;28;20039;-71
2020/12/02 00:55:39;;;;;;;1999.90;999.90;;;;;;;-1.53;65.91;97153.38;5108796;28;20044;-70
2020/12/02 00:58:15;;;;;;;1999.90;999.90;;;;;;;-1.63;66.45;97162.88;5097075;28;20578;-70
2020/12/02 01:00:41;;;;;;;;;;;;;;;-1.76;67.19;97169.09;5096754;28;20040;-71
2020/12/02 01:03:16;;;;;;;1999.90;999.90;;;;;;;-2.01;66.81;97163.38;5096472;28;19922;-70
2020/12/02 01:05:44;;;;;;;1999.90;999.90;;;;;;;-2.07;67.17;97163.88;5095106;28;20047;-70
2020/12/02 01:08:37;;;;;;;1999.90;999.90;;;;;;;-2.13;67.04;97155.81;5096306;28;20062;-73
2020/12/02 01:11:16;;;;;;;1999.90;999.90;;;;;;;-2.24;67.44;97154.09;5096009;28;20108;-73
2020/12/02 01:13:43;;;;;;;1999.90;999.90;;;;;;;-2.09;67.60;97150.25;5096169;28;20134;-73
2020/12/02 01:16:13;;;;;;;1999.90;999.90;;;;;;;-2.08;67.05;97154.47;5095988;28;20048;-70
2020/12/02 01:18:39;;;;;;;1999.90;999.90;;;;;;;-1.94;68.10;97144.75;5096260;28;20044;-70
2020/12/02 01:21:13;;;;;;;1999.90;999.90;;;;;;;-1.83;67.53;97144.66;5095825;28;20075;-70
2020/12/02 01:23:39;;;;;;;1999.90;999.90;;;;;;;-1.70;66.82;97141.88;5095960;28;20124;-70
2020/12/02 01:26:05;;;;;;;1999.90;999.90;;;;;;;-1.74;66.68;97148.25;5095895;28;20763;-70
2020/12/02 01:28:33;;;;;;;1999.90;999.90;;;;;;;-1.84;68.33;97146.44;5095836;28;20535;-71
2020/12/02 01:30:59;;;;;;;1999.90;999.90;;;;;;;-1.74;67.59;97146.47;5094418;28;20055;-70
2020/12/02 01:33:26;;;;;;;1999.90;999.90;;;;;;;-1.52;67.53;97142.06;5095689;28;20036;-70
2020/12/02 01:35:52;;;;;;;1999.90;999.90;;;;;;;-1.58;66.40;97140.84;5095721;28;20122;-70
2020/12/02 01:38:23;;;;;;;1999.90;999.90;;;;;;;-1.55;66.57;97132.00;5095637;28;20521;-70
2020/12/02 01:40:51;;;;;;;1999.90;999.90;;;;;;;-1.54;66.28;97133.59;5095546;28;20044;-70
2020/12/02 01:43:17;;;;;;;1999.90;999.90;;;;;;;-1.58;65.92;97135.66;5095524;28;20598;-70
2020/12/02 01:45:49;;;;;;;1999.90;999.90;;;;;;;-1.61;66.00;97137.69;5095472;28;20074;-70
2020/12/02 01:48:23;;;;;;;1999.90;999.90;;;;;;;-1.48;65.92;97140.84;5102284;28;20052;-70
2020/12/02 01:51:09;;;;;;;1999.90;999.90;;;;;;;-1.62;65.57;97138.63;5095322;28;20051;-70
2020/12/02 01:53:40;;;;;;;1999.90;999.90;;;;;;;-1.76;65.87;97143.22;5094946;28;20539;-73
2020/12/02 01:56:27;;;;;;;1999.90;999.90;;;;;;;-1.81;66.72;97140.19;5095312;28;20051;-70
2020/12/02 01:59:13;;;;;;;1999.90;999.90;;;;;;;-1.69;66.95;97133.16;5095269;28;20067;-70
2020/12/02 02:02:02;;;;;;;1999.90;999.90;;;;;;;-1.68;66.60;97151.13;5094304;28;20468;-71
2020/12/02 02:04:40;;;;;;;1999.90;999.90;;;;;;;-1.41;66.09;97141.97;5095158;28;20086;-71
2020/12/02 02:07:16;;;;;;;1999.90;999.90;;;;;;;-1.31;65.99;97146.38;5095086;28;20086;-70
2020/12/02 02:09:44;;;;;;;1999.90;999.90;;;;;;;-1.19;65.29;97150.47;5095289;28;20069;-70
2020/12/02 02:12:18;;;;;;;1999.90;999.90;;;;;;;-1.23;64.85;97149.09;5094840;28;20044;-71
2020/12/02 02:14:55;;;;;;;1999.90;999.90;;;;;;;-1.33;65.53;97149.09;5094954;28;20473;-70
2020/12/02 02:17:20;;;;;;;1999.90;999.90;;;;;;;-1.23;65.30;97149.09;5094992;28;20052;-70
2020/12/02 02:19:46;;;;;;;1999.90;999.90;;;;;;;-1.25;65.92;97151.03;5111567;28;20031;-70
2020/12/02 02:22:11;;;;;;;1999.90;999.90;;;;;;;-1.30;65.39;97145.41;5099448;28;20080;-70
2020/12/02 02:24:37;;;;;;;1999.90;999.90;;;;;;;-1.33;64.85;97138.75;5094788;28;20048;-70
2020/12/02 02:27:02;;;;;;;1999.90;999.90;;;;;;;-1.33;64.77;97144.72;5094766;28;20048;-70
2020/12/02 02:29:38;;;;;;;1999.90;999.90;;;;;;;-1.36;65.80;97147.59;5094569;28;20044;-71
2020/12/02 02:32:14;;;;;;;1999.90;999.90;;;;;;;-1.41;65.87;97147.16;5094646;28;20055;-70
2020/12/02 02:34:47;;;;;;;1999.90;999.90;;;;;;;-1.49;66.40;97141.81;5094654;28;20176;-70
2020/12/02 02:37:14;;;;;;;1999.90;999.90;;;;;;;-1.53;66.79;97145.59;5094770;28;20048;-71
2020/12/02 02:39:41;;;;;;;1999.90;999.90;;;;;;;-1.28;66.35;97146.94;5094439;28;20051;-70
2020/12/02 02:42:31;;;;;;;1999.90;999.90;;;;;;;-1.35;66.12;97146.66;5094468;28;20052;-70
2020/12/02 02:44:59;;;;;;;1999.90;999.90;;;;;;;-1.16;65.34;97155.41;5094729;28;20044;-70
2020/12/02 02:47:25;;;;;;;1999.90;999.90;;;;;;;-1.17;64.83;97151.16;5094281;28;20063;-70
2020/12/02 02:49:50;;;;;;;1999.90;999.90;;;;;;;-1.10;64.85;97149.69;5094259;28;20044;-70
2020/12/02 02:52:16;;;;;;;1999.90;999.90;;;;;;;-1.08;64.46;97147.78;5094120;28;20101;-70
2020/12/02 02:54:42;;;;;;;1999.90;999.90;;;;;;;-1.02;64.20;97147.25;5094411;28;20074;-71
2020/12/02 02:57:08;;;;;;;1999.90;999.90;;;;;;;-1.04;64.15;97148.34;5094127;28;20059;-70
2020/12/02 02:59:33;;;;;;;1999.90;999.90;;;;;;;-1.03;64.22;97150.78;5093981;28;20044;-70
2020/12/02 03:01:59;;;;;;;1999.90;999.90;;;;;;;-1.01;64.94;97148.91;5094065;28;20039;-70
2020/12/02 03:04:24;;;;;;;1999.90;999.90;;;;;;;-0.80;64.45;97153.16;5093962;28;20063;-70
2020/12/02 03:06:50;;;;;;;1999.90;999.90;;;;;;;-0.79;63.06;97156.56;5093915;28;20075;-71
2020/12/02 03:09:16;;;;;;;1999.90;999.90;;;;;;;-0.84;64.09;97149.19;5093935;28;20050;-70
2020/12/02 03:11:42;;;;;;;1999.90;999.90;;;;;;;-0.84;63.42;97154.38;5093826;28;20051;-70
2020/12/02 03:14:10;;;;;;;1999.90;999.90;;;;;;;-0.86;62.95;97151.09;5092915;28;20052;-70
2020/12/02 03:16:50;;;;;;;1999.90;999.90;;;;;;;-1.04;63.57;97146.56;5094095;28;20055;-71
2020/12/02 03:19:23;;;;;;;1999.90;999.90;;;;;;;-1.07;64.08;97159.78;5092687;28;20388;-70
2020/12/02 03:21:51;;;;;;;1999.90;999.90;;;;;;;-1.09;64.39;97160.88;5100802;28;20058;-70
2020/12/02 03:24:17;;;;;;;1999.90;999.90;;;;;;;-1.13;64.41;97155.13;5092603;28;20083;-70
2020/12/02 03:26:45;;;;;;;1999.90;999.90;;;;;;;-1.05;64.72;97152.72;5093907;28;20052;-70
2020/12/02 03:29:11;;;;;;;1999.90;999.90;;;;;;;-1.09;64.59;97161.66;5093747;28;20055;-71
2020/12/02 03:31:37;;;;;;;1999.90;999.90;;;;;;;-0.91;64.04;97153.25;5093777;28;20409;-70
2020/12/02 03:34:07;;;;;;;1999.90;999.90;;;;;;;-0.78;64.12;97150.41;5093777;28;20446;-71
2020/12/02 03:36:33;;;;;;;1999.90;999.90;;;;;;;-0.84;63.52;97154.38;5093434;28;20044;-70
2020/12/02 03:38:58;;;;;;;1999.90;999.90;;;;;;;-0.76;63.71;97156.28;5093760;28;20097;-70
2020/12/02 03:41:23;;;;;;;1999.90;999.90;;;;;;;-0.60;63.33;97155.75;5093373;28;20052;-70
2020/12/02 03:43:49;;;;;;;1999.90;999.90;;;;;;;-0.51;64.56;97154.94;5093308;28;20048;-71
2020/12/02 03:46:14;;;;;;;1999.90;999.90;;;;;;;-0.50;64.10;97147.00;5109969;28;20040;-71
2020/12/02 03:48:40;;;;;;;1999.90;999.90;;;;;;;-0.37;65.98;97151.09;5094022;28;20492;-70
2020/12/02 03:51:05;;;;;;;1999.90;999.90;;;;;;;-0.40;66.64;97159.97;5093096;28;20058;-71
2020/12/02 03:53:31;;;;;;;1999.90;999.90;;;;;;;-0.49;67.80;97153.03;5093068;28;20123;-71
2020/12/02 03:55:56;;;;;;;1999.90;999.90;;;;;;;-0.44;68.22;97161.22;5093106;28;20052;-70
2020/12/02 03:58:22;;;;;;;1999.90;999.90;;;;;;;-0.35;67.56;97160.38;5093113;28;20044;-70
2020/12/02 04:00:48;;;;;;;1999.90;999.90;;;;;;;-0.55;68.36;97163.94;5092888;28;20055;-71
2020/12/02 04:03:14;;;;;;;1999.90;999.90;;;;;;;-0.52;68.65;97161.06;5093048;28;20059;-70
2020/12/02 04:05:40;;;;;;;1999.90;999.90;;;;;;;-0.40;68.04;97162.56;5093019;28;20052;-70
2020/12/02 04:08:05;;;;;;;1999.90;999.90;;;;;;;-0.54;69.36;97157.81;5092927;28;20137;-70
2020/12/02 04:10:31;;;;;;;1999.90;999.90;;;;;;;-0.52;69.22;97163.66;5092909;28;20052;-70
2020/12/02 04:12:57;;;;;;;1999.90;999.90;;;;;;;-0.47;69.04;97171.84;5092558;28;20059;-70
2020/12/02 04:15:22;;;;;;;1999.90;999.90;;;;;;;-0.53;69.24;97160.25;5092792;28;20052;-71
2020/12/02 04:17:49;;;;;;;1999.90;999.90;;;;;;;-0.60;69.91;97161.75;5092823;28;20048;-70
2020/12/02 04:20:17;;;;;;;1999.90;999.90;;;;;;;-0.60;69.76;97160.94;5092643;28;20084;-70
2020/12/02 04:22:45;;;;;;;1999.90;999.90;;;;;;;-0.46;69.20;97168.28;5092742;28;20471;-71
2020/12/02 04:25:10;;;;;;;1999.90;999.90;;;;;;;-0.48;69.08;97165.00;5092300;28;20054;-70
2020/12/02 04:27:35;;;;;;;1999.90;999.90;;;;;;;-0.49;69.44;97158.22;5092698;28;20048;-71
2020/12/02 04:30:02;;;;;;;1999.90;999.90;;;;;;;-0.53;69.40;97156.81;5092762;28;20044;-70
2020/12/02 04:32:27;;;;;;;1999.90;999.90;;;;;;;-0.51;69.21;97162.69;5092526;28;20048;-70
2020/12/02 04:34:53;;;;;;;1999.90;999.90;;;;;;;-0.55;69.32;97156.16;5092686;28;20047;-71
2020/12/02 04:37:18;;;;;;;1999.90;999.90;;;;;;;-0.54;69.38;97160.41;5092535;28;20048;-71
2020/12/02 04:39:43;;;;;;;1999.90;999.90;;;;;;;-0.46;68.74;97157.94;5092599;28;20052;-71
2020/12/02 04:42:09;;;;;;;1999.90;999.90;;;;;;;-0.36;68.32;97163.13;5092659;28;20048;-71
2020/12/02 04:44:36;;;;;;;1999.90;999.90;;;;;;;-0.37;68.32;97157.09;5092552;28;20062;-71
2020/12/02 04:47:01;;;;;;;1999.90;999.90;;;;;;;-0.59;69.19;97159.97;5092553;28;20055;-71
2020/12/02 04:49:31;;;;;;;1999.90;999.90;;;;;;;-0.72;69.49;97157.66;5092506;28;20440;-71
2020/12/02 04:52:11;;;;;;;1999.90;999.90;;;;;;;-0.64;69.21;97154.38;5092755;28;20048;-71
2020/12/02 04:54:36;;;;;;;1999.90;999.90;;;;;;;-0.60;69.03;97158.34;5092456;28;20424;-71
2020/12/02 04:57:02;;;;;;;1999.90;999.90;;;;;;;-0.72;69.14;97161.06;5092475;28;20044;-71
2020/12/02 04:59:39;;;;;;;1999.90;999.90;;;;;;;-0.60;68.88;97161.75;5092403;28;20059;-71
2020/12/02 05:02:04;;;;;;;1999.90;999.90;;;;;;;-0.51;68.69;97170.47;5091215;28;20044;-71
2020/12/02 05:04:30;;;;;;;1999.90;999.90;;;;;;;-0.46;68.12;97173.47;5091135;28;20467;-71
2020/12/02 05:07:15;;;;;;;1999.90;999.90;;;;;;;-0.47;68.44;97166.66;5092425;28;20054;-71
2020/12/02 05:09:58;;;;;;;1999.90;999.90;;;;;;;-0.45;68.33;97169.94;5092333;28;20054;-71
2020/12/02 05:12:42;;;;;;;1999.90;999.90;;;;;;;-0.50;68.16;97172.13;5102101;28;20048;-71
2020/12/02 05:15:12;;;;;;;1999.90;999.90;;;;;;;-0.55;68.61;97171.72;5098589;28;20123;-71
2020/12/02 05:17:38;;;;;;;1999.90;999.90;;;;;;;-0.55;68.61;97169.13;5092632;28;20055;-70
2020/12/02 05:20:16;;;;;;;1999.90;999.90;;;;;;;-0.53;68.14;97174.97;5092487;28;20059;-71
2020/12/02 05:22:45;;;;;;;1999.90;999.90;;;;;;;-0.46;68.15;97178.66;5092603;28;20425;-71
2020/12/02 05:25:31;;;;;;;1999.90;999.90;;;;;;;-0.50;67.84;97175.53;5092368;28;20059;-71
2020/12/02 05:28:14;;;;;;;1999.90;999.90;;;;;;;-0.52;68.30;97177.44;5092408;28;20051;-72
2020/12/02 05:30:40;;;;;;;1999.90;999.90;;;;;;;-0.76;68.95;97188.22;5092263;28;20056;-71
2020/12/02 05:33:11;;;;;;;1999.90;999.90;;;;;;;-0.76;69.51;97188.22;5092393;28;20056;-71
2020/12/02 05:35:42;;;;;;;1999.90;999.90;;;;;;;-0.58;68.67;97193.53;5092369;28;20063;-71
2020/12/02 05:38:10;;;;;;;1999.90;999.90;;;;;;;-0.53;68.25;97190.53;5094326;28;20412;-71
2020/12/02 05:40:37;;;;;;;1999.90;999.90;;;;;;;-0.59;68.54;97188.50;5095722;28;20131;-71
2020/12/02 05:43:15;;;;;;;1999.90;999.90;;;;;;;-0.57;68.48;97187.41;5095941;28;20209;-71
2020/12/02 05:45:45;;;;;;;1999.90;999.90;;;;;;;-0.55;68.39;97200.22;5095970;28;20075;-71
2020/12/02 05:48:40;;;;;;;1999.90;999.90;;;;;;;-0.55;68.53;97200.22;5095837;28;20076;-71
2020/12/02 05:51:13;;;;;;;1999.90;999.90;;;;;;;-0.74;68.92;97206.22;5094238;28;20062;-71
2020/12/02 05:53:49;;;;;;;1999.90;999.90;;;;;;;-0.58;68.42;97210.84;5095643;28;20055;-71
2020/12/02 05:56:14;;;;;;;;;;;;;;;-0.52;67.50;97220.69;5096351;28;20417;-71
2020/12/02 05:58:41;;;;;;;1999.90;999.90;;;;;;;-0.54;68.00;97214.84;5095634;28;19912;-71
2020/12/02 06:01:14;;;;;;;1999.90;999.90;;;;;;;-0.55;67.89;97215.78;5095495;28;20480;-71
2020/12/02 06:03:40;;;;;;;1999.90;999.90;;;;;;;-0.72;67.95;97212.09;5095538;28;20048;-71
2020/12/02 06:06:07;;;;;;;1999.90;999.90;;;;;;;-0.71;68.18;97214.53;5095483;28;20561;-71
2020/12/02 06:08:45;;;;;;;1999.90;999.90;;;;;;;-0.71;68.01;97217.13;5095399;28;20099;-71
2020/12/02 06:11:21;;;;;;;1999.90;999.90;;;;;;;-0.69;67.66;97215.25;5094961;28;20040;-71
2020/12/02 06:13:51;;;;;;;1999.90;999.90;;;;;;;-0.52;67.31;97216.34;5095276;28;20051;-71
2020/12/02 06:16:34;;;;;;;1999.90;999.90;;;;;;;-0.46;67.15;97220.16;5094956;28;20043;-71
2020/12/02 06:19:22;;;;;;;1999.90;999.90;;;;;;;-0.41;66.25;97217.97;5094759;28;20122;-71
2020/12/02 06:21:53;;;;;;;1999.90;999.90;;;;;;;-0.46;66.62;97220.16;5094816;28;20047;-71
2020/12/02 06:24:38;;;;;;;1999.90;999.90;;;;;;;-0.36;66.97;97215.78;5094820;28;20066;-71
2020/12/02 06:27:43;;;;;;;1999.90;999.90;;;;;;;-0.42;67.15;97220.72;5095047;28;20040;-71
2020/12/02 06:30:13;;;;;;;1999.90;999.90;;;;;;;-0.50;67.21;97223.97;5094614;28;20071;-71
2020/12/02 06:32:38;;;;;;;1999.90;999.90;;;;;;;-0.51;67.07;97228.34;5094570;28;20186;-71
2020/12/02 06:35:19;;;;;;;1999.90;999.90;;;;;;;-0.55;66.98;97231.34;5093400;28;20130;-71
2020/12/02 06:38:15;;;;;;;1999.90;999.90;;;;;;;-0.73;67.68;97226.81;5094533;28;20100;-71
2020/12/02 06:41:08;;;;;;;1999.90;999.90;;;;;;;-0.82;68.18;97230.19;5111980;28;20144;-71
2020/12/02 06:43:44;;;;;;;1999.90;999.90;;;;;;;-0.79;68.03;97235.13;5094452;28;20044;-71
2020/12/02 06:46:12;;;;;;;1999.90;999.90;;;;;;;-0.79;67.92;97234.31;5094377;28;20123;-71
2020/12/02 06:48:39;;;;;;;1999.90;999.90;;;;;;;-0.77;68.10;97228.03;5094142;28;20075;-71
2020/12/02 06:51:10;;;;;;;1999.90;999.90;;;;;;;-0.70;68.03;97229.16;5094044;28;20130;-71
2020/12/02 06:53:36;;;;;;;1999.90;999.90;;;;;;;-0.59;67.33;97235.16;5094209;28;20420;-71
2020/12/02 06:56:04;;;;;;;1999.90;999.90;;;;;;;-0.60;67.02;97233.53;5092873;28;20070;-71
2020/12/02 06:58:30;;;;;;;1999.90;999.90;;;;;;;-0.65;67.14;97235.69;5094208;28;20040;-71
2020/12/02 07:01:07;;;;;;;1999.90;999.90;;;;;;;-0.59;67.22;97237.75;5093993;28;20055;-71
2020/12/02 07:03:41;;;;;;;1999.90;999.90;;;;;;;-0.56;66.19;97240.06;5094116;28;20059;-71
2020/12/02 07:06:16;;;;;;;1999.90;999.90;;;;;;;-0.76;66.46;97240.03;5093882;28;20056;-71
2020/12/02 07:08:44;;;;;;;1999.90;999.90;;;;;;;-0.80;67.37;97238.69;5094014;28;20131;-71
2020/12/02 07:11:14;;;;;;;1999.90;999.90;;;;;;;-0.98;67.28;97235.06;5093563;28;20127;-72
2020/12/02 07:13:46;;;;;;;1999.90;999.90;;;;;;;-0.84;68.07;97234.72;5092876;28;20083;-71
2020/12/02 07:16:18;;;;;;;1999.90;999.90;;;;;;;-0.82;66.87;97245.75;5094040;28;20051;-71
2020/12/02 07:18:46;;;;;;;1999.90;999.90;;;;;;;-0.86;67.31;97241.78;5094070;28;20409;-71
2020/12/02 07:21:30;;;;;;;1999.90;999.90;;;;;;;-0.85;68.20;97239.06;5093917;28;20115;-71
2020/12/02 07:23:58;;;;;;;1999.90;999.90;;;;;;;-0.81;67.61;97241.41;5094035;28;20048;-71
2020/12/02 07:26:24;;;;;;;1999.90;999.90;;;;;;;-0.69;67.36;97235.97;5093857;28;20109;-71
2020/12/02 07:28:57;;;;;;;1999.90;999.90;;;;;;;-0.81;68.01;97237.03;5093898;28;20476;-71
2020/12/02 07:31:25;;;;;;;1999.90;999.90;;;;;;;-0.75;68.13;97233.06;5093961;28;20581;-71
2020/12/02 07:34:26;;;;;;;1999.90;999.90;;;;;;;-0.64;67.43;97234.75;5093641;28;20056;-71
2020/12/02 07:36:58;;;;;;;1999.90;999.90;;;;;;;-0.60;67.39;97241.31;5051114;28;20535;-71
2020/12/02 07:39:25;;;;;;;1999.90;999.90;;;;;;;-0.59;67.71;97240.34;5050865;28;20556;-71
2020/12/02 07:41:50;;;;;;;1999.90;999.90;;;;;;;-0.77;67.45;97248.75;5050858;28;20080;-71
2020/12/02 07:44:16;;;;;;;1999.90;999.90;;;;;;;-0.70;67.69;97249.88;5050912;28;20549;-71
2020/12/02 07:46:42;;;;;;;1999.90;999.90;;;;;;;-0.72;67.90;97256.97;5050997;28;20055;-71
2020/12/02 07:49:09;;;;;;;1999.90;999.90;;;;;;;-0.60;67.23;97255.06;5050787;28;20136;-71
2020/12/02 07:51:42;;;;;;;1999.90;999.90;;;;;;;-0.60;67.48;97251.66;5050814;28;20063;-71
2020/12/02 07:54:25;;;;;;;1999.90;999.90;;;;;;;-0.59;67.39;97266.28;5034030;28;20425;-71
2020/12/02 07:56:51;;;;;;;1999.90;999.90;;;;;;;-0.85;68.32;97266.75;5050873;28;20106;-71
2020/12/02 07:59:19;;;;;;;1999.90;999.90;;;;;;;-0.74;67.76;97266.66;5050012;28;20422;-71
2020/12/02 08:02:03;;;;;;;1999.90;999.90;;;;;;;-0.60;67.53;97260.25;5050776;28;20059;-71
2020/12/02 08:04:56;;;;;;;1999.90;999.90;;;;;;;-0.76;67.88;97265.97;5054483;28;20120;-71
2020/12/02 08:07:25;;;;;;;1999.90;999.90;;;;;;;-0.80;68.47;97266.34;5055248;28;20051;-71
2020/12/02 08:09:55;;;;;;;1999.90;999.90;;;;;;;-0.75;68.15;97262.44;5054247;28;20055;-71
2020/12/02 08:12:30;;;;;;;1999.90;999.90;;;;;;;-0.56;67.67;97266.00;5092764;28;20517;-71
2020/12/02 08:15:01;;;;;;;1999.90;999.90;;;;;;;-0.54;67.97;97262.31;5092899;28;20040;-71
2020/12/02 08:17:28;;;;;;;1999.90;999.90;;;;;;;-0.71;68.11;97258.59;5092934;28;20102;-71
2020/12/02 08:19:58;;;;;;;1999.90;999.90;;;;;;;-0.57;67.98;97257.41;5092901;28;20043;-71
2020/12/02 08:22:47;;;;;;;1999.90;999.90;;;;;;;-0.69;67.57;97251.53;5092811;28;20047;-70
2020/12/02 08:25:19;;;;;;;1999.90;999.90;;;;;;;-0.81;67.98;97262.13;5093085;28;20044;-71
2020/12/02 08:27:50;;;;;;;1999.90;999.90;;;;;;;-0.73;67.73;97255.31;5092750;28;20190;-71
2020/12/02 08:30:19;;;;;;;1999.90;999.90;;;;;;;-0.61;67.14;97263.00;5092571;28;20054;-71
2020/12/02 08:32:52;;;;;;;1999.90;999.90;;;;;;;-0.45;66.92;97260.69;5092681;28;20048;-71
2020/12/02 08:35:27;;;;;;;1999.90;999.90;;;;;;;-0.44;66.98;97254.56;5092632;28;20048;-71
2020/12/02 08:37:58;;;;;;;1999.90;999.90;;;;;;;-0.35;66.98;97252.91;5092747;28;20105;-71
2020/12/02 08:40:46;;;;;;;1999.90;999.90;;;;;;;-0.31;66.72;97248.28;5092871;28;20071;-71
2020/12/02 08:43:24;;;;;;;1999.90;999.90;;;;;;;-0.41;66.23;97259.47;5092557;28;20051;-71
2020/12/02 08:45:55;;;;;;;1999.90;999.90;;;;;;;-0.40;66.62;97255.94;5092552;28;20106;-71
2020/12/02 08:48:21;;;;;;;1999.90;999.90;;;;;;;-0.30;66.38;97250.75;5092486;28;20059;-71
2020/12/02 08:50:47;;;;;;;1999.90;999.90;;;;;;;-0.28;65.92;97254.03;5092333;28;20036;-71
2020/12/02 08:53:12;;;;;;;1999.90;999.90;;;;;;;-0.23;66.25;97256.22;5091059;28;20059;-71
2020/12/02 08:55:40;;;;;;;1999.90;999.90;;;;;;;-0.59;67.15;97251.53;5092816;28;20131;-71
2020/12/02 08:58:06;;;;;;;1999.90;999.90;;;;;;;-0.61;66.84;97245.66;5092346;28;20051;-71
2020/12/02 09:00:31;;;;;;;1999.90;999.90;;;;;;;-0.73;66.63;97249.31;5092259;28;20048;-71
2020/12/02 09:02:56;;;;;;;1999.90;999.90;;;;;;;-0.87;68.20;97250.50;5092432;28;20149;-71
2020/12/02 09:05:22;;;;;;;1999.90;999.90;;;;;;;-0.92;68.78;97250.94;5092344;28;20048;-71
2020/12/02 09:07:47;;;;;;;1999.90;999.90;;;;;;;-0.83;67.93;97246.69;5092385;28;20113;-71
2020/12/02 09:10:12;;;;;;;1999.90;999.90;;;;;;;-0.74;67.87;97251.09;5092491;28;20044;-71
2020/12/02 09:12:38;;;;;;;1999.90;999.90;;;;;;;-0.62;67.65;97246.63;5096157;28;20472;-71
2020/12/02 09:15:04;;;;;;;1999.90;999.90;;;;;;;-0.43;67.43;97257.97;5096452;28;20062;-71
2020/12/02 09:17:30;;;;;;;1999.90;999.90;;;;;;;-0.39;67.07;97252.38;5096326;28;20493;-71
2020/12/02 09:19:55;;;;;;;1999.90;999.90;;;;;;;-0.41;66.50;97245.69;5096281;28;20063;-71
2020/12/02 09:22:21;;;;;;;1999.90;999.90;;;;;;;-0.41;66.91;97254.28;5096394;28;20059;-71
2020/12/02 09:24:47;;;;;;;1999.90;999.90;;;;;;;-0.40;66.48;97250.75;5096251;28;20043;-71
2020/12/02 09:27:13;;;;;;;1999.90;999.90;;;;;;;-0.51;67.40;97248.28;5096278;28;20048;-71
2020/12/02 09:29:39;;;;;;;1999.90;999.90;;;;;;;-0.53;67.97;97242.38;5095870;28;20101;-71
2020/12/02 09:32:05;;;;;;;1999.90;999.90;;;;;;;-0.44;67.28;97243.34;5115923;28;20051;-71
2020/12/02 09:34:31;;;;;;;1999.90;999.90;;;;;;;-0.49;67.25;97236.00;5096367;28;20059;-71
2020/12/02 09:36:57;;;;;;;1999.90;999.90;;;;;;;-0.43;67.43;97230.25;5095828;28;20048;-70
2020/12/02 09:39:22;;;;;;;1999.90;999.90;;;;;;;-0.40;67.15;97240.38;5095708;28;20048;-71
2020/12/02 09:41:58;;;;;;;1999.90;999.90;;;;;;;-0.26;65.75;97235.72;5095634;28;20043;-70
2020/12/02 09:44:26;;;;;;;1999.90;999.90;;;;;;;-0.28;65.72;97227.28;5095797;28;20478;-71
2020/12/02 09:47:08;;;;;;;1999.90;999.90;;;;;;;-0.25;66.40;97233.00;5095648;28;20047;-71
2020/12/02 09:49:34;;;;;;;1999.90;999.90;;;;;;;-0.11;65.81;97223.97;5095452;28;20055;-71
2020/12/02 09:52:09;;;;;;;1999.90;999.90;;;;;;;-0.18;65.64;97217.72;5095370;28;20051;-71
2020/12/02 09:54:42;;;;;;;1999.90;999.90;;;;;;;-0.09;66.35;97210.88;5095415;28;20052;-71
2020/12/02 09:57:18;;;;;;;1999.90;999.90;;;;;;;-0.17;66.22;97208.97;5095339;28;20043;-71
2020/12/02 09:59:44;;;;;;;1999.90;999.90;;;;;;;-0.06;65.75;97208.00;5095372;28;20101;-71
2020/12/02 10:02:37;;;;;;;1999.90;999.90;;;;;;;-0.44;66.93;97197.53;5095454;28;20071;-71
2020/12/02 10:05:34;;;;;;;1999.90;999.90;;;;;;;-0.23;66.36;97199.16;5095313;28;20052;-71
2020/12/02 10:08:18;;;;;;;1999.90;999.90;;;;;;;-0.39;66.77;97195.34;5095099;28;20048;-71
2020/12/02 10:10:53;;;;;;;1999.90;999.90;;;;;;;-0.22;66.64;97196.41;5093760;28;20056;-71
2020/12/02 10:13:52;;;;;;;1999.90;999.90;;;;;;;-0.21;65.98;97186.84;5095257;28;20588;-71
2020/12/02 10:16:40;;;;;;;1999.90;999.90;;;;;;;-0.32;66.26;97184.38;5095327;28;20044;-71
2020/12/02 10:19:45;;;;;;;1999.90;999.90;;;;;;;-0.24;66.31;97187.13;5095032;28;20044;-71
2020/12/02 10:22:48;;;;;;;1999.90;999.90;;;;;;;-0.42;67.15;97185.22;5094531;28;20070;-70
2020/12/02 10:25:14;;;;;;;1999.90;999.90;;;;;;;-0.24;66.85;97182.75;5095111;28;20044;-71
2020/12/02 10:27:58;;;;;;;1999.90;999.90;;;;;;;-0.18;66.36;97181.41;5095098;28;20036;-71
2020/12/02 10:30:27;;;;;;;1999.90;999.90;;;;;;;-0.42;66.68;97180.03;5094975;28;20058;-71
2020/12/02 10:33:12;;;;;;;1999.90;999.90;;;;;;;-0.38;66.67;97176.19;5094858;28;20132;-71
2020/12/02 10:35:40;;;;;;;1999.90;999.90;;;;;;;-0.24;66.21;97181.94;5095172;28;20126;-71
2020/12/02 10:38:14;;;;;;;1999.90;999.90;;;;;;;-0.19;65.86;97174.56;5093493;28;20409;-71
2020/12/02 10:40:50;;;;;;;1999.90;999.90;;;;;;;-0.20;66.09;97180.72;5094720;28;20040;-71
2020/12/02 10:43:41;;;;;;;1999.90;999.90;;;;;;;-0.22;65.92;97174.81;5093576;28;20459;-71
2020/12/02 10:46:17;;;;;;;1999.90;999.90;;;;;;;-0.38;66.09;97172.81;5094694;28;20040;-71
2020/12/02 10:49:05;;;;;;;1999.90;999.90;;;;;;;-0.35;66.42;97170.75;5094514;28;20486;-71
2020/12/02 10:51:36;;;;;;;1999.90;999.90;;;;;;;-0.36;65.95;97181.28;5094626;28;20455;-71
2020/12/02 10:54:11;;;;;;;1999.90;999.90;;;;;;;-0.22;66.01;97174.81;5094537;28;20410;-71
2020/12/02 10:56:41;;;;;;;1999.90;999.90;;;;;;;-0.47;67.05;97177.03;5094859;28;20040;-70
2020/12/02 10:59:11;;;;;;;1999.90;999.90;;;;;;;-0.54;67.13;97163.78;5113836;28;20071;-71
2020/12/02 11:01:36;;;;;;;1999.90;999.90;;;;;;;-0.40;67.27;97170.34;5094405;28;20050;-72
2020/12/02 11:04:05;;;;;;;1999.90;999.90;;;;;;;-0.32;66.95;97164.47;5094518;28;20078;-72
2020/12/02 11:06:53;;;;;;;1999.90;999.90;;;;;;;-0.35;67.17;97175.94;5094276;28;20047;-72
2020/12/02 11:09:55;;;;;;;1999.90;999.90;;;;;;;-0.29;66.89;97165.97;5094316;28;20150;-71
2020/12/02 11:12:30;;;;;;;1999.90;999.90;;;;;;;-0.60;67.47;97166.13;5094190;28;20047;-71
2020/12/02 11:15:47;;;;;;;1999.90;999.90;;;;;;;-0.59;67.79;97159.97;5093062;28;20075;-71